Time;durP1;ratioP1;P1;durP2;ratioP2;P2;SDS_P1;SDS_P2;PMS_P1;PMS_P2;Temp;Humidity;BMP_temperature;BMP_pressure;BME280_temperature;BME280_humidity;BME280_pressure;Samples;Min_cycle;Max_cycle;Signal;HPM_P1;HPM_P2
2023/01/06 00:01:04;;;;;;;23.70;19.75;;;11.30;99.90;;;;;;5031221;28;20029;-84
2023/01/06 00:03:30;;;;;;;19.85;17.48;;;11.30;99.90;;;;;;5031427;28;20087;-85
2023/01/06 00:06:00;;;;;;;10.95;8.93;;;11.20;99.90;;;;;;5032384;28;20029;-84
2023/01/06 00:08:26;;;;;;;17.90;16.10;;;11.30;99.90;;;;;;5035164;28;20029;-84
2023/01/06 00:10:52;;;;;;;17.40;15.45;;;11.20;99.90;;;;;;5034930;28;20036;-84
2023/01/06 00:13:17;;;;;;;17.77;15.30;;;11.20;99.90;;;;;;5035116;28;20489;-83
2023/01/06 00:15:43;;;;;;;17.20;15.35;;;11.30;99.90;;;;;;5035026;28;20032;-84
2023/01/06 00:18:09;;;;;;;17.63;13.25;;;11.20;99.90;;;;;;5034477;28;20056;-84
2023/01/06 00:20:34;;;;;;;12.05;10.57;;;11.20;99.90;;;;;;5035163;28;20100;-84
2023/01/06 00:23:00;;;;;;;11.00;8.57;;;11.20;99.90;;;;;;5035137;28;20440;-86
2023/01/06 00:25:26;;;;;;;10.43;9.10;;;11.30;99.90;;;;;;5035035;28;20029;-85
2023/01/06 00:27:51;;;;;;;8.68;7.75;;;11.30;99.90;;;;;;5034773;28;20045;-84
2023/01/06 00:30:17;;;;;;;8.60;7.80;;;11.30;99.90;;;;;;5034903;28;20029;-84
2023/01/06 00:32:42;;;;;;;6.95;6.30;;;11.30;99.90;;;;;;5034365;28;20043;-85
2023/01/06 00:35:08;;;;;;;8.15;6.35;;;11.30;99.90;;;;;;5034654;28;20385;-84
2023/01/06 00:37:34;;;;;;;6.88;6.18;;;11.30;99.90;;;;;;5034939;28;20041;-85
2023/01/06 00:40:00;;;;;;;7.45;6.05;;;11.30;99.90;;;;;;5016855;28;20026;-84
2023/01/06 00:42:25;;;;;;;7.43;6.03;;;11.40;99.90;;;;;;5034769;28;20120;-84
2023/01/06 00:44:51;;;;;;;6.50;5.80;;;11.30;99.90;;;;;;5034436;28;20034;-84
2023/01/06 00:47:18;;;;;;;5.13;4.60;;;11.20;99.90;;;;;;5034115;28;20049;-84
2023/01/06 00:49:43;;;;;;;4.47;4.03;;;11.30;99.90;;;;;;5034599;28;20048;-84
2023/01/06 00:52:10;;;;;;;5.25;3.92;;;11.30;99.90;;;;;;5033995;28;20084;-84
2023/01/06 00:54:36;;;;;;;5.15;4.20;;;11.20;99.90;;;;;;5034194;28;20140;-83
2023/01/06 00:57:01;;;;;;;4.93;4.10;;;11.10;99.90;;;;;;5034115;28;20061;-84
2023/01/06 00:59:27;;;;;;;6.25;5.20;;;11.20;99.90;;;;;;5034562;28;20386;-84
2023/01/06 01:01:55;;;;;;;6.60;5.97;;;11.10;99.90;;;;;;5033773;28;20425;-84
2023/01/06 01:04:22;;;;;;;6.13;5.53;;;11.20;99.90;;;;;;5034071;28;20034;-84
2023/01/06 01:06:48;;;;;;;5.90;5.28;;;11.20;99.90;;;;;;5034051;28;20418;-85
2023/01/06 01:09:26;;;;;;;6.85;5.28;;;11.20;99.90;;;;;;5034421;28;20390;-84
2023/01/06 01:12:11;;;;;;;7.45;5.10;;;11.10;99.90;;;;;;5033721;28;20482;-85
2023/01/06 01:14:48;;;;;;;7.70;5.15;;;11.10;99.90;;;;;;5033675;28;20022;-84
2023/01/06 01:17:20;;;;;;;6.50;4.88;;;11.10;99.90;;;;;;5033547;28;20028;-84
2023/01/06 01:19:46;;;;;;;5.20;4.70;;;11.20;99.90;;;;;;5033910;28;20116;-85
2023/01/06 01:22:12;;;;;;;6.00;5.18;;;11.10;99.90;;;;;;5033828;28;20021;-85
2023/01/06 01:24:38;;;;;;;5.20;4.80;;;11.10;99.90;;;;;;5033703;28;20493;-84
2023/01/06 01:27:04;;;;;;;6.40;4.80;;;11.10;99.90;;;;;;5033472;28;20029;-84
2023/01/06 01:29:30;;;;;;;5.53;4.72;;;11.10;99.90;;;;;;5033275;28;20025;-84
2023/01/06 01:31:55;;;;;;;5.65;4.20;;;11.10;99.90;;;;;;5033539;28;20038;-85
2023/01/06 01:34:22;;;;;;;4.53;4.13;;;11.10;99.90;;;;;;5033577;28;20022;-85
2023/01/06 01:36:49;;;;;;;5.28;4.78;;;11.10;99.90;;;;;;5033412;28;20112;-84
2023/01/06 01:39:18;;;;;;;5.05;4.43;;;11.10;99.90;;;;;;5033859;28;20072;-85
2023/01/06 01:41:44;;;;;;;5.05;4.30;;;11.10;99.90;;;;;;5033373;28;20093;-85
2023/01/06 01:45:07;;;;;;;4.75;3.53;;;11.10;99.90;;;;;;5033025;28;20547;-84
2023/01/06 01:47:47;;;;;;;6.85;5.10;;;11.00;99.90;;;;;;4972262;28;20038;-84
2023/01/06 01:50:16;;;;;;;9.15;7.70;;;11.10;99.90;;;;;;4972827;28;20033;-84
2023/01/06 01:52:44;;;;;;;8.60;7.35;;;11.10;99.90;;;;;;4971696;28;20053;-84
2023/01/06 01:55:10;;;;;;;9.57;6.90;;;11.10;99.90;;;;;;4972548;28;20395;-85
2023/01/06 01:57:43;;;;;;;6.60;5.90;;;11.00;99.90;;;;;;4972134;28;20178;-84
2023/01/06 02:00:10;;;;;;;7.00;5.88;;;10.90;99.90;;;;;;4972314;28;20074;-85
2023/01/06 02:02:36;;;;;;;6.75;6.05;;;10.80;99.90;;;;;;4972248;28;20034;-84
2023/01/06 02:05:02;;;;;;;7.53;6.72;;;10.80;99.90;;;;;;4971936;28;20035;-84
2023/01/06 02:07:29;;;;;;;6.82;6.10;;;10.90;99.90;;;;;;4971854;28;20109;-85
2023/01/06 02:09:59;;;;;;;7.55;6.00;;;10.90;99.90;;;;;;4971989;28;20035;-84
2023/01/06 02:12:25;;;;;;;6.13;5.38;;;10.90;99.90;;;;;;4971427;28;20403;-83
2023/01/06 02:14:51;;;;;;;8.52;6.97;;;10.90;99.90;;;;;;4972165;28;20039;-85
2023/01/06 02:17:35;;;;;;;11.15;6.88;;;10.90;99.90;;;;;;4975200;28;20066;-84
2023/01/06 02:20:20;;;;;;;6.95;6.25;;;10.90;99.90;;;;;;5013047;28;20475;-85
2023/01/06 02:23:00;;;;;;;7.57;6.88;;;10.90;99.90;;;;;;5012974;28;20025;-85
2023/01/06 02:25:34;;;;;;;10.23;7.22;;;10.80;99.90;;;;;;5013108;28;20088;-84
2023/01/06 02:28:43;;;;;;;7.45;6.57;;;10.80;99.90;;;;;;5012343;28;20029;-85
2023/01/06 02:31:51;;;;;;;10.02;7.10;;;10.70;99.90;;;;;;5013054;28;20026;-85
2023/01/06 02:34:40;;;;;;;7.65;6.85;;;10.80;99.90;;;;;;5012569;28;20033;-84
2023/01/06 02:37:13;;;;;;;7.78;7.03;;;10.90;99.90;;;;;;5012587;28;20026;-85
2023/01/06 02:39:56;;;;;;;9.93;7.15;;;10.80;99.90;;;;;;5012530;28;20026;-85
2023/01/06 02:42:41;;;;;;;9.48;7.22;;;10.70;99.90;;;;;;5012149;28;20034;-85
2023/01/06 02:45:23;;;;;;;13.57;8.20;;;10.60;99.90;;;;;;5012735;28;20406;-85
2023/01/06 02:48:01;;;;;;;8.43;7.43;;;10.60;99.90;;;;;;5012346;28;20022;-85
2023/01/06 02:50:40;;;;;;;8.90;7.85;;;10.50;99.90;;;;;;4995279;28;20030;-85
2023/01/06 02:53:40;;;;;;;9.70;7.65;;;10.40;99.90;;;;;;5015524;28;20387;-84
2023/01/06 02:56:06;;;;;;;9.57;7.75;;;10.50;99.90;;;;;;5031769;28;20033;-84
2023/01/06 02:58:38;;;;;;;8.63;7.82;;;10.50;99.90;;;;;;5032248;28;20052;-85
2023/01/06 03:01:31;;;;;;;10.35;7.72;;;10.50;99.90;;;;;;5032060;28;20105;-85
2023/01/06 03:04:01;;;;;;;9.35;8.15;;;10.60;99.90;;;;;;5032489;28;20025;-85
2023/01/06 03:06:30;;;;;;;10.10;8.00;;;10.70;99.90;;;;;;5032009;28;20393;-85
2023/01/06 03:08:58;;;;;;;9.90;8.05;;;10.70;99.90;;;;;;5032114;28;20116;-85
2023/01/06 03:11:25;;;;;;;10.70;8.30;;;10.70;99.90;;;;;;5031473;28;20025;-85
2023/01/06 03:14:04;;;;;;;9.05;7.68;;;10.70;99.90;;;;;;5032050;28;20034;-85
2023/01/06 03:16:30;;;;;;;7.93;7.13;;;10.80;99.90;;;;;;5032059;28;20022;-85
2023/01/06 03:18:56;;;;;;;8.10;7.30;;;10.80;99.90;;;;;;5032007;28;20030;-85
2023/01/06 03:21:26;;;;;;;9.27;7.70;;;10.80;99.90;;;;;;5031927;28;20084;-85
2023/01/06 03:23:52;;;;;;;9.23;8.25;;;10.80;99.90;;;;;;5032266;28;20029;-85
2023/01/06 03:26:18;;;;;;;10.23;8.40;;;10.80;99.90;;;;;;5031376;28;20029;-85
2023/01/06 03:28:43;;;;;;;10.98;9.30;;;10.80;99.90;;;;;;5031902;28;20058;-85
2023/01/06 03:31:31;;;;;;;10.82;8.68;;;10.80;99.90;;;;;;5031936;28;20075;-85
2023/01/06 03:34:21;;;;;;;10.48;9.38;;;10.80;99.90;;;;;;5031852;28;20037;-85
2023/01/06 03:37:26;;;;;;;12.32;9.50;;;10.70;99.90;;;;;;5031620;28;20482;-84
2023/01/06 03:40:39;;;;;;;10.88;9.25;;;10.70;99.90;;;;;;5031284;28;20030;-85
2023/01/06 03:43:12;;;;;;;10.65;9.55;;;10.60;99.90;;;;;;5035639;28;20021;-85
2023/01/06 03:45:38;;;;;;;12.45;11.15;;;10.60;99.90;;;;;;5035576;28;20444;-84
2023/01/06 03:48:15;;;;;;;12.82;11.07;;;10.70;99.90;;;;;;5035833;28;20068;-85
2023/01/06 03:50:49;;;;;;;15.38;12.13;;;10.80;99.90;;;;;;5035676;28;20100;-85
2023/01/06 03:53:34;;;;;;;15.18;12.45;;;10.80;99.90;;;;;;5034939;28;20097;-85
2023/01/06 03:56:12;;;;;;;13.18;11.50;;;10.80;99.90;;;;;;5034931;28;20072;-85
2023/01/06 03:58:40;;;;;;;14.55;11.90;;;10.70;99.90;;;;;;5035273;28;20390;-84
2023/01/06 04:01:07;;;;;;;13.55;12.15;;;10.70;99.90;;;;;;5035083;28;20025;-85
2023/01/06 04:03:33;;;;;;;12.35;10.77;;;10.60;99.90;;;;;;5035249;28;20029;-85
2023/01/06 04:05:59;;;;;;;13.85;11.32;;;10.50;99.90;;;;;;5017476;28;20033;-85
2023/01/06 04:08:25;;;;;;;11.65;10.45;;;10.60;99.90;;;;;;5035216;28;20390;-84
2023/01/06 04:10:51;;;;;;;10.80;9.05;;;10.70;99.90;;;;;;5035104;28;20486;-85
2023/01/06 04:13:16;;;;;;;12.05;7.80;;;10.70;99.90;;;;;;5034944;28;20041;-85
2023/01/06 04:15:42;;;;;;;8.43;7.55;;;10.60;99.90;;;;;;5035057;28;20021;-84
2023/01/06 04:18:08;;;;;;;9.82;8.38;;;10.50;99.90;;;;;;5035459;28;20037;-84
2023/01/06 04:20:33;;;;;;;8.48;7.68;;;10.60;99.90;;;;;;5034827;28;20156;-84
2023/01/06 04:22:59;;;;;;;10.73;8.38;;;10.70;99.90;;;;;;5034605;28;20057;-85
2023/01/06 04:25:25;;;;;;;11.57;8.20;;;10.80;99.90;;;;;;5034717;28;20029;-85
2023/01/06 04:27:51;;;;;;;11.45;10.27;;;10.70;99.90;;;;;;5034747;28;20486;-85
2023/01/06 04:30:17;;;;;;;10.95;9.63;;;10.70;99.90;;;;;;5034805;28;20017;-85
2023/01/06 04:32:43;;;;;;;12.27;10.25;;;10.70;99.90;;;;;;5035011;28;20128;-84
2023/01/06 04:35:09;;;;;;;14.60;10.32;;;10.70;99.90;;;;;;5034653;28;20048;-84
2023/01/06 04:37:35;;;;;;;11.75;10.55;;;10.80;99.90;;;;;;5033826;28;20037;-84
2023/01/06 04:40:01;;;;;;;12.73;9.88;;;10.70;99.90;;;;;;5034758;28;20041;-84
2023/01/06 04:42:26;;;;;;;11.07;9.93;;;10.90;99.90;;;;;;5034534;28;20045;-84
2023/01/06 04:44:52;;;;;;;12.82;9.55;;;10.80;99.90;;;;;;5034272;28;20654;-85
2023/01/06 04:47:18;;;;;;;11.65;9.90;;;10.80;99.90;;;;;;5034597;28;20029;-85
2023/01/06 04:49:43;;;;;;;11.93;9.13;;;10.70;99.90;;;;;;5034315;28;20026;-85
2023/01/06 04:52:09;;;;;;;10.45;9.18;;;10.70;99.90;;;;;;5025930;28;20053;-85
2023/01/06 04:54:35;;;;;;;12.48;10.15;;;10.70;99.90;;;;;;5053426;28;20033;-84
2023/01/06 04:57:01;;;;;;;10.15;9.05;;;10.70;99.90;;;;;;5054378;28;20060;-84
2023/01/06 04:59:26;;;;;;;11.77;9.80;;;10.70;99.90;;;;;;5053743;28;20021;-86
2023/01/06 05:01:52;;;;;;;10.43;8.77;;;10.70;99.90;;;;;;5054122;28;20492;-85
2023/01/06 05:04:18;;;;;;;13.20;9.82;;;10.70;99.90;;;;;;5053907;28;20032;-85
2023/01/06 05:06:44;;;;;;;10.85;8.65;;;10.70;99.90;;;;;;5053570;28;20036;-84
2023/01/06 05:09:10;;;;;;;11.32;8.95;;;10.80;99.90;;;;;;5054097;28;20099;-85
2023/01/06 05:11:36;;;;;;;10.48;8.68;;;10.70;99.90;;;;;;5054077;28;20474;-84
2023/01/06 05:14:02;;;;;;;10.50;8.98;;;10.70;99.90;;;;;;5054043;28;20036;-84
2023/01/06 05:16:33;;;;;;;10.30;8.70;;;10.80;99.90;;;;;;5053832;28;20037;-85
2023/01/06 05:18:59;;;;;;;10.43;9.30;;;10.80;99.90;;;;;;5053837;28;20033;-85
2023/01/06 05:21:26;;;;;;;11.02;9.02;;;10.70;99.90;;;;;;5053497;28;20025;-84
2023/01/06 05:23:52;;;;;;;10.77;9.20;;;10.70;99.90;;;;;;5053812;28;20025;-84
2023/01/06 05:26:24;;;;;;;9.98;8.98;;;10.70;99.90;;;;;;5053765;28;20493;-85
2023/01/06 05:28:50;;;;;;;9.63;8.60;;;10.70;99.90;;;;;;5053423;28;20025;-84
2023/01/06 05:31:16;;;;;;;11.15;8.35;;;10.80;99.90;;;;;;5053516;28;20048;-84
2023/01/06 05:33:42;;;;;;;10.90;8.23;;;10.80;99.90;;;;;;5053454;28;20068;-85
2023/01/06 05:36:10;;;;;;;9.07;7.75;;;10.70;99.90;;;;;;5053044;28;20075;-85
2023/01/06 05:38:36;;;;;;;10.65;7.93;;;10.70;99.90;;;;;;5053712;28;20029;-84
2023/01/06 05:41:02;;;;;;;8.48;7.43;;;10.70;99.90;;;;;;5053281;28;20025;-85
2023/01/06 05:43:28;;;;;;;10.88;8.05;;;10.70;99.90;;;;;;5053294;28;20039;-84
2023/01/06 05:45:55;;;;;;;9.40;8.40;;;10.60;99.90;;;;;;5053407;28;20032;-84
2023/01/06 05:48:24;;;;;;;14.48;8.85;;;10.60;99.90;;;;;;5053298;28;20370;-84
2023/01/06 05:50:50;;;;;;;12.98;9.80;;;10.60;99.90;;;;;;5052709;28;20025;-84
2023/01/06 05:53:15;;;;;;;14.82;11.50;;;10.60;99.90;;;;;;5033026;28;20045;-84
2023/01/06 05:55:41;;;;;;;13.63;10.20;;;10.60;99.90;;;;;;5033180;28;20100;-84
2023/01/06 05:58:06;;;;;;;13.77;11.75;;;10.50;99.90;;;;;;5033147;28;20033;-84
2023/01/06 06:00:32;;;;;;;11.27;10.05;;;10.60;99.90;;;;;;5033231;28;20112;-84
2023/01/06 06:02:58;;;;;;;11.00;9.23;;;10.60;99.90;;;;;;5032858;28;20039;-84
2023/01/06 06:05:23;;;;;;;11.43;9.45;;;10.70;99.90;;;;;;5032640;28;20021;-84
2023/01/06 06:07:53;;;;;;;11.75;9.02;;;10.70;99.90;;;;;;5032938;28;20034;-83
2023/01/06 06:10:19;;;;;;;9.57;8.23;;;10.70;99.90;;;;;;5032498;28;20037;-84
2023/01/06 06:12:45;;;;;;;11.25;8.20;;;10.70;99.90;;;;;;5032330;28;20041;-85
2023/01/06 06:15:10;;;;;;;12.07;8.93;;;10.70;99.90;;;;;;5032516;28;20052;-85
2023/01/06 06:17:36;;;;;;;9.63;8.18;;;10.70;99.90;;;;;;5032490;28;20394;-85
2023/01/06 06:20:02;;;;;;;10.82;8.82;;;10.70;99.90;;;;;;5015081;28;20033;-87
2023/01/06 06:22:28;;;;;;;11.73;9.20;;;10.70;99.90;;;;;;5034221;28;20029;-90
2023/01/06 06:24:53;;;;;;;9.57;8.38;;;10.70;99.90;;;;;;5033906;28;20029;-90
2023/01/06 06:27:19;;;;;;;9.30;7.90;;;10.70;99.90;;;;;;5016501;28;20030;-89
2023/01/06 06:29:44;;;;;;;10.25;8.32;;;10.70;99.90;;;;;;5015984;28;20022;-88
2023/01/06 06:32:10;;;;;;;9.13;8.00;;;10.60;99.90;;;;;;5033301;28;20037;-89
2023/01/06 06:34:36;;;;;;;11.60;8.55;;;10.70;99.90;;;;;;5015350;28;20021;-88
2023/01/06 06:37:01;;;;;;;9.90;8.77;;;10.70;99.90;;;;;;5033338;28;20056;-87
2023/01/06 06:39:27;;;;;;;11.95;10.43;;;10.70;99.90;;;;;;5033277;28;20045;-91
2023/01/06 06:41:53;;;;;;;11.38;9.40;;;10.70;99.90;;;;;;5034004;28;20405;-89
2023/01/06 06:44:18;;;;;;;12.70;10.77;;;10.70;99.90;;;;;;5033635;28;20025;-90
2023/01/06 06:46:44;;;;;;;10.80;8.35;;;10.70;99.90;;;;;;5015344;28;20446;-89
2023/01/06 06:49:09;;;;;;;9.45;6.32;;;10.60;99.90;;;;;;5032800;28;20386;-90
2023/01/06 06:51:35;;;;;;;8.02;5.93;;;10.70;99.90;;;;;;5021490;28;20049;-89
2023/01/06 06:54:02;;;;;;;6.22;5.60;;;10.60;99.90;;;;;;5052464;28;20067;-88
2023/01/06 06:56:28;;;;;;;8.02;6.32;;;10.60;99.90;;;;;;5052605;28;20123;-88
2023/01/06 06:58:53;;;;;;;8.20;7.40;;;10.60;99.90;;;;;;5052669;28;20079;-88
2023/01/06 07:01:20;;;;;;;9.25;7.95;;;10.50;99.90;;;;;;5052579;28;20033;-88
2023/01/06 07:03:46;;;;;;;11.93;9.80;;;10.60;99.90;;;;;;5034629;28;20033;-89
2023/01/06 07:06:15;;;;;;;12.90;10.57;;;10.60;99.90;;;;;;5052955;28;20032;-88
2023/01/06 07:08:45;;;;;;;12.70;10.32;;;10.70;99.90;;;;;;5052513;28;20025;-88
2023/01/06 07:11:10;;;;;;;10.65;9.43;;;10.70;99.90;;;;;;5034499;28;20436;-88
2023/01/06 07:13:36;;;;;;;9.25;8.10;;;10.60;99.90;;;;;;5052487;28;20033;-88
2023/01/06 07:16:02;;;;;;;9.77;7.82;;;10.60;99.90;;;;;;5053308;28;20474;-89
2023/01/06 07:18:27;;;;;;;10.65;7.50;;;10.60;99.90;;;;;;5038904;28;20112;-88
2023/01/06 07:20:53;;;;;;;10.90;7.30;;;10.60;99.90;;;;;;5056764;28;20504;-88
2023/01/06 07:23:19;;;;;;;9.88;7.13;;;10.60;99.90;;;;;;5056703;28;20021;-89
2023/01/06 07:25:49;;;;;;;9.00;6.90;;;10.50;99.90;;;;;;5056664;28;20029;-88
2023/01/06 07:28:15;;;;;;;9.95;8.05;;;10.50;99.90;;;;;;5039125;28;20021;-88
2023/01/06 07:30:40;;;;;;;12.73;8.88;;;10.40;99.90;;;;;;5057012;28;20397;-88
2023/01/06 07:33:06;;;;;;;11.40;8.45;;;10.50;99.90;;;;;;5038355;28;20033;-88
2023/01/06 07:35:32;;;;;;;10.90;8.88;;;10.60;99.90;;;;;;5056375;28;20021;-88
2023/01/06 07:38:05;;;;;;;10.98;9.15;;;10.70;99.90;;;;;;5056463;28;20025;-89
2023/01/06 07:40:30;;;;;;;11.40;9.52;;;10.80;99.90;;;;;;5039189;28;20025;-88
2023/01/06 07:42:56;;;;;;;27.88;14.55;;;10.80;99.90;;;;;;5056308;28;20444;-88
2023/01/06 07:45:22;;;;;;;12.65;10.00;;;10.80;99.90;;;;;;5056370;28;20041;-89
2023/01/06 07:47:48;;;;;;;11.77;9.90;;;10.80;99.90;;;;;;5056166;28;20067;-88
2023/01/06 07:50:14;;;;;;;13.68;9.93;;;10.80;99.90;;;;;;5056934;28;20024;-88
2023/01/06 07:52:39;;;;;;;10.82;8.32;;;10.90;99.90;;;;;;5040898;28;20045;-88
2023/01/06 07:55:05;;;;;;;12.43;9.80;;;11.00;99.90;;;;;;5036594;28;20081;-88
2023/01/06 07:57:31;;;;;;;14.65;10.85;;;11.00;99.90;;;;;;5036170;28;20033;-88
2023/01/06 07:59:57;;;;;;;14.82;11.60;;;11.00;99.90;;;;;;5018437;28;20026;-89
2023/01/06 08:02:22;;;;;;;13.70;11.63;;;11.00;99.90;;;;;;5035772;28;20112;-88
2023/01/06 08:04:48;;;;;;;15.88;11.70;;;11.10;99.90;;;;;;5027729;28;20080;-87
2023/01/06 08:07:16;;;;;;;13.73;11.20;;;11.30;99.90;;;;;;5034992;28;20037;-84
2023/01/06 08:09:42;;;;;;;11.10;10.00;;;11.60;99.90;;;;;;5034698;28;20431;-86
2023/01/06 08:12:08;;;;;;;12.73;10.15;;;11.70;99.90;;;;;;5015704;28;20033;-86
2023/01/06 08:14:33;;;;;;;11.13;10.02;;;11.60;99.90;;;;;;5006499;28;20401;-85
2023/01/06 08:16:59;;;;;;;10.45;9.35;;;12.00;99.90;;;;;;5034517;28;20037;-87
2023/01/06 08:19:25;;;;;;;10.93;9.38;;;13.50;99.90;;;;;;5027368;28;20026;-86
2023/01/06 08:21:50;;;;;;;9.70;8.70;;;13.50;99.90;;;;;;5035040;28;20126;-86
2023/01/06 08:24:16;;;;;;;10.23;9.20;;;12.90;99.90;;;;;;5035262;28;20032;-85
2023/01/06 08:26:42;;;;;;;12.00;9.88;;;12.50;99.90;;;;;;5034749;28;20040;-86
2023/01/06 08:29:07;;;;;;;10.48;9.20;;;12.00;99.90;;;;;;5017087;28;20029;-86
2023/01/06 08:31:33;;;;;;;13.18;10.55;;;11.80;99.90;;;;;;5033783;28;20057;-86
2023/01/06 08:33:59;;;;;;;13.30;10.90;;;11.70;99.90;;;;;;5034627;28;20034;-86
2023/01/06 08:36:25;;;;;;;11.90;10.38;;;11.30;99.90;;;;;;5035070;28;20112;-85
2023/01/06 08:38:51;;;;;;;14.02;11.15;;;11.40;99.90;;;;;;5034894;28;20099;-86
2023/01/06 08:41:17;;;;;;;12.70;11.10;;;11.50;99.90;;;;;;5034368;28;20453;-86
2023/01/06 08:43:45;;;;;;;14.82;12.30;;;11.70;99.90;;;;;;5017533;28;20508;-86
2023/01/06 08:46:14;;;;;;;12.85;11.35;;;11.70;99.90;;;;;;5034662;28;20478;-86
2023/01/06 08:48:39;;;;;;;14.50;11.65;;;11.70;99.90;;;;;;5033358;28;20485;-85
2023/01/06 08:51:11;;;;;;;14.32;12.23;;;11.50;99.90;;;;;;5033645;28;20044;-84
2023/01/06 08:53:37;;;;;;;15.90;11.98;;;11.30;99.90;;;;;;5032998;28;20037;-86
2023/01/06 08:56:03;;;;;;;15.23;13.15;;;11.30;99.90;;;;;;5028901;28;20067;-86
2023/01/06 08:58:29;;;;;;;15.55;13.27;;;11.40;99.90;;;;;;5030152;28;20508;-86
2023/01/06 09:00:55;;;;;;;17.77;13.80;;;11.30;99.90;;;;;;5014578;28;20175;-86
2023/01/06 09:03:20;;;;;;;17.50;13.18;;;11.20;99.90;;;;;;5028387;28;20056;-86
2023/01/06 09:05:54;;;;;;;17.08;14.07;;;11.40;99.90;;;;;;5033663;28;20025;-86
2023/01/06 09:08:20;;;;;;;16.58;14.55;;;11.50;99.90;;;;;;5032535;28;20033;-85
2023/01/06 09:10:46;;;;;;;16.63;14.18;;;11.30;99.90;;;;;;5034029;28;20029;-84
2023/01/06 09:13:11;;;;;;;16.30;14.55;;;11.70;99.90;;;;;;5033599;28;20045;-87
2023/01/06 09:15:41;;;;;;;16.90;14.05;;;11.90;99.90;;;;;;5033507;28;20478;-86
2023/01/06 09:18:07;;;;;;;18.08;14.60;;;12.00;99.90;;;;;;5033805;28;20389;-86
2023/01/06 09:20:34;;;;;;;20.80;14.88;;;12.00;99.90;;;;;;5034393;28;20026;-85
2023/01/06 09:23:00;;;;;;;16.58;14.75;;;12.00;99.90;;;;;;5015838;28;20053;-85
2023/01/06 09:25:25;;;;;;;16.63;13.57;;;12.30;99.90;;;;;;5033312;28;20029;-85
2023/01/06 09:27:51;;;;;;;17.52;15.35;;;12.50;99.90;;;;;;5032970;28;20084;-85
2023/01/06 09:30:17;;;;;;;18.38;14.63;;;12.60;99.90;;;;;;5033940;28;20394;-87
2023/01/06 09:32:42;;;;;;;16.17;14.48;;;12.50;99.90;;;;;;5033425;28;20076;-86
2023/01/06 09:35:08;;;;;;;16.50;14.18;;;12.10;99.90;;;;;;5032434;28;20021;-88
2023/01/06 09:37:34;;;;;;;15.40;13.75;;;11.80;99.90;;;;;;5032222;28;20022;-85
2023/01/06 09:39:59;;;;;;;15.52;13.80;;;11.70;99.90;;;;;;5012650;28;20022;-86
2023/01/06 09:42:34;;;;;;;16.08;13.82;;;12.00;99.90;;;;;;5013553;28;20021;-85
2023/01/06 09:45:19;;;;;;;14.07;12.05;;;12.20;99.90;;;;;;5023541;28;20091;-85
2023/01/06 09:47:56;;;;;;;14.88;11.80;;;12.10;99.90;;;;;;5024728;28;20051;-85
2023/01/06 09:50:39;;;;;;;15.43;13.02;;;12.20;99.90;;;;;;5032872;28;20551;-86
2023/01/06 09:53:19;;;;;;;17.15;12.73;;;12.50;99.90;;;;;;5050708;28;20072;-85
2023/01/06 09:55:52;;;;;;;15.48;12.82;;;12.70;99.90;;;;;;5049966;28;20017;-85
2023/01/06 09:58:21;;;;;;;15.07;12.82;;;12.80;99.90;;;;;;5043358;28;20030;-85
2023/01/06 10:00:51;;;;;;;14.73;12.27;;;12.80;99.90;;;;;;5044605;28;20028;-85
2023/01/06 10:03:20;;;;;;;13.95;12.30;;;12.80;99.90;;;;;;5052816;28;20029;-86
2023/01/06 10:06:30;;;;;;;14.55;11.23;;;12.10;99.90;;;;;;5052851;28;20028;-86
2023/01/06 10:09:10;;;;;;;11.05;9.95;;;12.50;99.90;;;;;;4952613;29;20499;-86
2023/01/06 10:11:50;;;;;;;13.35;10.80;;;12.80;99.90;;;;;;4955951;28;20120;-87
2023/01/06 10:14:21;;;;;;;12.45;10.27;;;12.90;99.90;;;;;;4953010;29;20058;-85
2023/01/06 10:17:06;;;;;;;11.05;9.95;;;13.00;99.90;;;;;;4951930;29;20034;-85
2023/01/06 10:19:58;;;;;;;11.30;10.10;;;12.90;99.90;;;;;;4951936;29;20039;-84
2023/01/06 10:22:24;;;;;;;10.45;9.20;;;13.00;99.90;;;;;;4956473;28;20027;-84
2023/01/06 10:25:17;;;;;;;10.55;9.40;;;13.00;99.90;;;;;;4971641;28;20037;-84
2023/01/06 10:27:52;;;;;;;10.90;8.63;;;13.10;99.90;;;;;;4954950;28;20039;-84
2023/01/06 10:30:26;;;;;;;9.48;8.57;;;13.10;99.90;;;;;;4952363;28;20510;-86
2023/01/06 10:32:52;;;;;;;8.80;7.75;;;13.10;99.90;;;;;;4933199;29;20148;-86
2023/01/06 10:35:21;;;;;;;7.90;7.15;;;13.20;99.90;;;;;;4933289;29;20392;-85
2023/01/06 10:37:49;;;;;;;8.35;7.22;;;13.50;99.90;;;;;;4933134;29;20075;-86
2023/01/06 10:40:26;;;;;;;9.93;7.05;;;13.60;99.90;;;;;;5009384;28;20033;-86
2023/01/06 10:42:59;;;;;;;7.63;6.85;;;13.60;99.90;;;;;;5032392;28;20037;-86
2023/01/06 10:45:44;;;;;;;6.90;6.30;;;13.60;99.90;;;;;;5032285;28;20036;-86
2023/01/06 10:48:19;;;;;;;7.95;6.72;;;13.60;99.90;;;;;;5032200;28;20497;-86
2023/01/06 10:50:45;;;;;;;6.20;5.60;;;13.60;99.90;;;;;;5031614;28;20025;-86
2023/01/06 10:53:12;;;;;;;6.30;5.70;;;13.70;99.90;;;;;;5016947;28;20049;-86
2023/01/06 10:56:00;;;;;;;7.13;6.43;;;13.80;99.90;;;;;;5031692;28;20109;-86
2023/01/06 10:58:48;;;;;;;6.45;5.72;;;13.80;99.90;;;;;;5032275;28;20017;-86
2023/01/06 11:01:21;;;;;;;6.70;6.10;;;13.80;99.90;;;;;;5032130;28;20029;-86
2023/01/06 11:04:10;;;;;;;7.07;6.38;;;13.90;99.90;;;;;;5032039;28;20101;-85
2023/01/06 11:06:58;;;;;;;7.35;6.63;;;13.60;99.90;;;;;;5032002;28;20429;-86
2023/01/06 11:09:37;;;;;;;9.63;7.30;;;13.60;99.90;;;;;;5030847;28;20092;-86
2023/01/06 11:12:09;;;;;;;8.15;7.45;;;13.70;99.90;;;;;;5014198;28;20068;-86
2023/01/06 11:14:35;;;;;;;10.38;7.40;;;13.60;99.90;;;;;;5032165;28;20442;-86
2023/01/06 11:17:08;;;;;;;9.18;8.25;;;13.50;99.90;;;;;;5014035;28;20136;-86
2023/01/06 11:19:42;;;;;;;8.90;8.10;;;13.40;99.90;;;;;;5030925;28;20486;-86
2023/01/06 11:22:35;;;;;;;9.77;7.85;;;13.40;99.90;;;;;;5031787;28;20033;-86
2023/01/06 11:25:03;;;;;;;8.63;7.82;;;13.30;99.90;;;;;;5031699;28;20374;-86
2023/01/06 11:27:29;;;;;;;8.05;7.35;;;13.50;99.90;;;;;;5031621;28;20025;-86
2023/01/06 11:29:54;;;;;;;8.05;7.25;;;13.70;99.90;;;;;;5031997;28;20036;-86
2023/01/06 11:32:28;;;;;;;8.43;7.63;;;13.70;99.90;;;;;;5014127;28;20462;-86
2023/01/06 11:35:00;;;;;;;7.65;6.93;;;14.20;99.90;;;;;;5031858;28;20033;-86
2023/01/06 11:37:36;;;;;;;7.60;6.78;;;14.20;99.90;;;;;;5032289;28;20080;-86
2023/01/06 11:40:28;;;;;;;9.00;8.10;;;14.10;99.90;;;;;;5031272;28;20030;-86
2023/01/06 11:42:58;;;;;;;10.90;9.82;;;14.30;99.90;;;;;;5018515;28;20084;-86
2023/01/06 11:45:33;;;;;;;11.55;9.88;;;14.50;99.90;;;;;;5031768;28;20436;-87
2023/01/06 11:47:59;;;;;;;10.00;8.93;;;14.60;99.90;;;;;;5031733;28;20029;-86
2023/01/06 11:50:25;;;;;;;8.82;8.02;;;14.60;99.90;;;;;;5031965;28;20056;-86
2023/01/06 11:53:15;;;;;;;9.63;8.63;;;14.30;99.90;;;;;;5029548;28;20053;-86
2023/01/06 11:55:41;;;;;;;7.93;7.22;;;14.00;99.90;;;;;;5052042;28;20584;-86
2023/01/06 11:58:20;;;;;;;7.32;6.72;;;13.80;99.90;;;;;;5033631;28;20025;-86
2023/01/06 12:01:14;;;;;;;7.43;6.70;;;13.80;99.90;;;;;;5051414;28;20036;-86
2023/01/06 12:03:43;;;;;;;6.88;6.22;;;13.70;99.90;;;;;;5054550;28;20033;-86
2023/01/06 12:06:12;;;;;;;6.55;5.95;;;13.80;99.90;;;;;;5055516;28;20440;-86
2023/01/06 12:08:55;;;;;;;6.03;5.53;;;13.90;99.90;;;;;;5054902;28;20071;-86
2023/01/06 12:11:41;;;;;;;6.05;5.28;;;13.80;99.90;;;;;;5052837;28;20128;-86
2023/01/06 12:14:22;;;;;;;6.60;6.00;;;13.60;99.90;;;;;;5035158;28;20530;-87
2023/01/06 12:17:06;;;;;;;6.53;5.93;;;13.60;99.90;;;;;;5042250;28;20028;-87
2023/01/06 12:19:42;;;;;;;7.88;5.53;;;13.70;99.90;;;;;;5055535;28;20032;-86
2023/01/06 12:22:17;;;;;;;6.55;5.95;;;13.80;99.90;;;;;;5047977;28;20033;-87
2023/01/06 12:24:45;;;;;;;7.05;6.25;;;14.10;99.90;;;;;;5052618;28;20040;-88
2023/01/06 12:27:28;;;;;;;6.30;5.70;;;14.20;99.90;;;;;;5055289;28;20029;-84
2023/01/06 12:29:59;;;;;;;6.00;5.50;;;14.60;99.90;;;;;;5052060;28;20032;-83
2023/01/06 12:32:29;;;;;;;6.55;5.95;;;14.80;99.90;;;;;;5052120;28;20060;-82
2023/01/06 12:35:01;;;;;;;5.97;5.47;;;14.90;99.90;;;;;;5049297;28;20488;-81
2023/01/06 12:37:33;;;;;;;6.25;5.60;;;14.70;99.90;;;;;;5052800;28;20055;-82
2023/01/06 12:40:08;;;;;;;6.10;5.60;;;14.40;99.90;;;;;;5054010;28;20116;-84
2023/01/06 12:42:45;;;;;;;5.90;5.35;;;14.40;99.90;;;;;;5054322;28;20029;-81
2023/01/06 12:45:23;;;;;;;6.65;6.00;;;14.10;99.90;;;;;;5049554;28;20068;-83
2023/01/06 12:47:54;;;;;;;6.40;5.85;;;14.30;99.90;;;;;;5054268;28;20103;-86
2023/01/06 12:50:29;;;;;;;8.23;6.43;;;14.30;99.90;;;;;;5034924;28;20520;-88
2023/01/06 12:53:33;;;;;;;6.68;6.07;;;14.00;99.90;;;;;;5024652;28;20056;-82
2023/01/06 12:56:19;;;;;;;6.63;5.20;;;13.90;99.90;;;;;;5033098;28;20036;-83